createdAt,value
2019-06-20T00:03:35.005Z,68.71
2019-06-20T00:07:36.986Z,70.39
2019-06-20T00:11:39.148Z,70.90
2019-06-20T00:15:41.133Z,70.94
2019-06-20T00:19:43.040Z,70.71
2019-06-20T00:23:44.964Z,70.10
2019-06-20T00:27:46.858Z,69.61
2019-06-20T00:31:48.768Z,69.49
2019-06-20T00:35:50.669Z,69.96
2019-06-20T00:39:52.575Z,70.83
2019-06-20T00:43:54.489Z,71.21
2019-06-20T00:47:56.646Z,71.61
2019-06-20T00:51:58.539Z,72.28
2019-06-20T00:56:00.626Z,72.42
2019-06-20T01:00:02.607Z,72.60
2019-06-20T01:04:04.882Z,72.67
2019-06-20T01:08:06.790Z,72.42
2019-06-20T01:12:08.701Z,72.06
2019-06-20T01:16:10.614Z,72.02
2019-06-20T01:20:13.035Z,72.18
2019-06-20T01:24:15.056Z,72.29
2019-06-20T01:28:16.963Z,71.89
2019-06-20T01:32:18.961Z,72.33
2019-06-20T01:36:20.956Z,72.32
2019-06-20T01:40:22.858Z,73.00
2019-06-20T01:44:24.781Z,69.13
2019-06-20T01:48:27.640Z,66.98
2019-06-20T01:52:29.548Z,67.82
2019-06-20T01:56:31.472Z,69.73
2019-06-20T02:00:49.203Z,72.00
2019-06-20T02:04:51.112Z,75.26
2019-06-20T02:08:53.018Z,77.35
2019-06-20T02:12:54.921Z,79.50
2019-06-20T02:16:56.843Z,81.58
2019-06-20T02:20:59.839Z,82.18
2019-06-20T02:25:01.883Z,84.11
2019-06-20T02:29:04.130Z,85.53
2019-06-20T02:33:06.206Z,86.04
2019-06-20T02:37:08.137Z,87.80
2019-06-20T02:41:10.075Z,88.72
2019-06-20T02:45:12.412Z,88.70
2019-06-20T02:49:14.316Z,89.10
2019-06-20T02:53:16.227Z,89.42
2019-06-20T02:57:18.142Z,89.27
2019-06-20T03:01:20.108Z,89.11
2019-06-20T03:05:22.021Z,89.37
2019-06-20T03:09:23.932Z,89.49
2019-06-20T03:13:25.913Z,89.10
2019-06-20T03:17:27.808Z,89.07
2019-06-20T03:21:29.784Z,88.09
2019-06-20T03:25:31.863Z,88.88
2019-06-20T03:29:33.788Z,88.71
2019-06-20T03:33:35.684Z,88.91
2019-06-20T03:37:37.584Z,88.81
2019-06-20T03:41:39.678Z,88.81
2019-06-20T03:45:41.629Z,88.79
2019-06-20T03:49:43.650Z,88.54
2019-06-20T03:53:45.596Z,88.29
2019-06-20T03:57:47.483Z,87.44
2019-06-20T04:01:49.389Z,87.18
2019-06-20T04:05:51.287Z,87.21
2019-06-20T04:09:53.194Z,87.53
2019-06-20T04:13:55.080Z,87.62
2019-06-20T04:17:56.993Z,87.66
2019-06-20T04:21:58.909Z,88.10
2019-06-20T04:26:00.894Z,88.47
2019-06-20T04:30:02.831Z,88.60
2019-06-20T04:34:04.994Z,89.35
2019-06-20T04:38:06.894Z,88.67
2019-06-20T04:42:08.806Z,89.05
2019-06-20T04:46:14.952Z,88.95
2019-06-20T04:50:16.863Z,88.73
2019-06-20T04:54:18.837Z,88.85
2019-06-20T04:58:20.729Z,89.17
2019-06-20T05:02:24.612Z,88.44
2019-06-20T05:06:26.662Z,88.57
2019-06-20T05:10:28.634Z,88.25
2019-06-20T05:14:30.548Z,88.35
2019-06-20T05:18:32.443Z,87.94
2019-06-20T05:22:34.346Z,87.59
2019-06-20T05:26:36.254Z,87.90
2019-06-20T05:30:38.214Z,88.10
2019-06-20T05:34:40.140Z,88.69
2019-06-20T05:38:42.039Z,88.19
2019-06-20T05:42:43.951Z,88.18
2019-06-20T05:46:45.852Z,87.10
2019-06-20T05:50:48.617Z,87.16
2019-06-20T05:54:50.722Z,87.51
2019-06-20T05:58:52.700Z,86.55
2019-06-20T06:02:54.599Z,86.18
2019-06-20T06:06:56.535Z,86.76
2019-06-20T06:10:58.864Z,87.10
2019-06-20T06:15:01.193Z,86.89
2019-06-20T06:19:03.173Z,84.72
2019-06-20T06:23:05.095Z,82.40
2019-06-20T06:27:07.013Z,83.01
2019-06-20T06:31:08.908Z,82.88
2019-06-20T06:35:11.717Z,79.26
2019-06-20T06:39:13.647Z,77.96
2019-06-20T06:43:15.556Z,80.03
2019-06-20T06:47:17.519Z,79.13
2019-06-20T06:51:19.610Z,78.27
2019-06-20T06:55:21.651Z,78.92
2019-06-20T06:59:23.591Z,78.92
2019-06-20T07:03:25.456Z,79.10
2019-06-20T07:07:27.363Z,79.96
2019-06-20T07:11:29.346Z,78.92
2019-06-20T07:15:31.433Z,77.69
2019-06-20T07:19:33.345Z,75.44
2019-06-20T07:23:35.248Z,75.91
2019-06-20T07:27:37.223Z,76.31
2019-06-20T07:31:39.133Z,76.33
2019-06-20T07:35:41.987Z,75.93
2019-06-20T07:39:43.977Z,74.74
2019-06-20T07:43:45.890Z,75.61
2019-06-20T07:47:47.801Z,74.44
2019-06-20T07:51:49.706Z,72.21
2019-06-20T07:55:52.391Z,70.46
2019-06-20T07:59:54.288Z,69.45
2019-06-20T08:03:56.193Z,68.76
2019-06-20T08:07:58.137Z,69.21
2019-06-20T08:12:00.105Z,69.37
2019-06-20T08:16:03.973Z,71.12
2019-06-20T08:20:09.294Z,70.69
2019-06-20T08:24:11.191Z,69.70
2019-06-20T08:28:13.095Z,68.77
2019-06-20T08:32:15.018Z,67.91
2019-06-20T08:36:17.123Z,67.83
2019-06-20T08:40:19.780Z,66.81
2019-06-20T08:44:21.756Z,64.66
2019-06-20T08:48:23.674Z,64.02
2019-06-20T08:52:25.658Z,62.35
2019-06-20T08:56:27.589Z,60.92
2019-06-20T09:00:32.675Z,59.85
2019-06-20T09:04:34.567Z,62.01
2019-06-20T09:08:36.495Z,61.12
2019-06-20T09:12:38.532Z,61.71
2019-06-20T09:16:40.492Z,59.57
2019-06-20T09:20:42.689Z,59.53
2019-06-20T09:24:44.618Z,58.84
2019-06-20T09:28:46.621Z,60.05
2019-06-20T09:32:48.512Z,60.06
2019-06-20T09:36:51.928Z,58.97
2019-06-20T09:40:54.870Z,57.60
2019-06-20T09:44:56.798Z,56.81
2019-06-20T09:48:58.833Z,56.23
2019-06-20T09:53:00.686Z,56.81
2019-06-20T09:57:02.655Z,54.57
2019-06-20T10:01:04.633Z,54.22
2019-06-20T10:05:07.855Z,53.55
2019-06-20T10:09:10.340Z,53.43
2019-06-20T10:13:12.307Z,52.26
2019-06-20T10:17:14.215Z,53.58
2019-06-20T10:21:16.136Z,51.97
2019-06-20T10:25:19.052Z,51.22
2019-06-20T10:29:20.953Z,48.72
2019-06-20T10:33:22.867Z,46.57
2019-06-20T10:37:24.864Z,48.72
2019-06-20T10:41:26.781Z,48.46
2019-06-20T10:45:29.913Z,47.46
2019-06-20T10:49:31.815Z,47.04
2019-06-20T10:53:33.729Z,45.91
2019-06-20T10:57:35.708Z,45.17
2019-06-20T11:01:37.634Z,43.91
2019-06-20T11:05:40.861Z,44.63
2019-06-20T11:09:45.277Z,44.81
2019-06-20T11:13:48.534Z,45.20
2019-06-20T11:17:50.552Z,43.63
2019-06-20T11:21:52.462Z,44.49
2019-06-20T11:25:54.382Z,45.07
2019-06-20T11:29:56.449Z,45.91
2019-06-20T11:33:59.231Z,44.64
2019-06-20T11:38:01.680Z,45.89
2019-06-20T11:42:03.568Z,43.73
2019-06-20T11:46:05.609Z,44.68
2019-06-20T11:50:08.517Z,41.95
2019-06-20T11:54:10.431Z,42.47
2019-06-20T11:58:12.336Z,44.00
2019-06-20T12:02:14.233Z,44.31
2019-06-20T12:06:16.138Z,43.65
2019-06-20T12:10:19.523Z,44.28
2019-06-20T12:14:21.410Z,44.07
2019-06-20T12:18:23.340Z,42.77
2019-06-20T12:22:25.286Z,41.72
2019-06-20T12:26:27.270Z,40.13
2019-06-20T12:30:29.620Z,39.51
2019-06-20T12:34:31.605Z,37.29
2019-06-20T12:38:33.597Z,37.10
2019-06-20T12:42:39.098Z,37.62
2019-06-20T12:46:41.002Z,37.51
2019-06-20T12:50:43.120Z,36.65
2019-06-20T12:54:45.030Z,35.90
2019-06-20T12:58:46.934Z,35.36
2019-06-20T13:02:49.769Z,36.00
2019-06-20T13:06:52.384Z,35.78
2019-06-20T13:10:54.291Z,35.11
2019-06-20T13:14:56.279Z,35.89
2019-06-20T13:18:58.190Z,37.81
2019-06-20T13:23:00.099Z,36.28
2019-06-20T13:27:01.995Z,35.57
2019-06-20T13:31:04.513Z,35.24
2019-06-20T13:35:08.621Z,37.30
2019-06-20T13:39:10.549Z,35.85
2019-06-20T13:43:12.440Z,36.32
2019-06-20T13:47:14.337Z,36.80
2019-06-20T13:51:16.233Z,36.27
2019-06-20T13:55:18.231Z,36.81
2019-06-20T13:59:20.141Z,37.35
2019-06-20T14:03:22.037Z,38.45
2019-06-20T14:07:24.182Z,38.71
2019-06-20T14:11:26.075Z,40.24
2019-06-20T14:15:27.994Z,37.65
2019-06-20T14:19:29.899Z,39.00
2019-06-20T14:23:31.885Z,38.04
2019-06-20T14:27:35.146Z,38.29
2019-06-20T14:31:37.078Z,38.74
2019-06-20T14:35:39.027Z,38.68
2019-06-20T14:39:40.965Z,38.74
2019-06-20T14:43:44.356Z,41.71
2019-06-20T14:47:46.465Z,41.85
2019-06-20T14:51:48.586Z,44.57
2019-06-20T14:55:51.719Z,43.96
2019-06-20T14:59:54.429Z,45.71
2019-06-20T15:03:56.560Z,46.50
2019-06-20T15:07:58.453Z,47.83
2019-06-20T15:12:00.379Z,48.66
2019-06-20T15:16:02.282Z,48.66
2019-06-20T15:20:06.521Z,49.38
2019-06-20T15:24:08.410Z,50.58
2019-06-20T15:28:10.316Z,54.54
2019-06-20T15:32:12.233Z,59.98
2019-06-20T15:36:14.140Z,67.62
2019-06-20T15:40:17.349Z,64.52
2019-06-20T15:44:19.256Z,68.84
2019-06-20T15:48:21.146Z,68.12
2019-06-20T15:52:24.132Z,70.78
2019-06-20T15:56:27.119Z,72.01
2019-06-20T16:00:29.086Z,75.70
2019-06-20T16:04:31.990Z,75.80
2019-06-20T16:08:33.886Z,77.49
2019-06-20T16:12:37.060Z,78.64
2019-06-20T16:16:39.035Z,79.14
2019-06-20T16:20:40.929Z,78.13
2019-06-20T16:24:42.837Z,79.41
2019-06-20T16:28:45.814Z,79.73
2019-06-20T16:32:47.727Z,81.41
2019-06-20T16:36:49.769Z,80.63
2019-06-20T16:40:51.810Z,80.76
2019-06-20T16:44:53.757Z,81.32
2019-06-20T16:48:55.610Z,81.58
2019-06-20T16:53:01.051Z,82.29
2019-06-20T16:57:01.662Z,83.18
2019-06-20T17:01:03.581Z,82.78
2019-06-20T17:05:11.682Z,82.66
2019-06-20T17:09:13.591Z,83.82
2019-06-20T17:13:15.506Z,84.90
2019-06-20T17:17:17.444Z,84.49
2019-06-20T17:21:19.354Z,85.03
2019-06-20T17:25:21.667Z,84.69
2019-06-20T17:29:23.562Z,83.83
2019-06-20T17:33:25.554Z,84.94
2019-06-20T17:37:27.467Z,83.25
2019-06-20T17:41:29.373Z,83.00
2019-06-20T17:45:31.689Z,84.63
2019-06-20T17:49:33.578Z,84.31
2019-06-20T17:53:35.544Z,82.48
2019-06-20T17:57:37.963Z,83.05
2019-06-20T18:01:39.878Z,81.37
2019-06-20T18:05:42.046Z,82.56
2019-06-20T18:09:43.950Z,84.49
2019-06-20T18:13:46.023Z,84.62
2019-06-20T18:17:47.926Z,83.16
2019-06-20T18:21:49.891Z,83.20
2019-06-20T18:25:51.779Z,80.52
2019-06-20T18:29:53.658Z,81.09
2019-06-20T18:33:55.575Z,81.67
2019-06-20T18:37:57.645Z,81.43
2019-06-20T18:41:59.615Z,81.38
2019-06-20T18:46:01.590Z,81.42
2019-06-20T18:50:04.294Z,81.84
2019-06-20T18:54:06.360Z,81.80
2019-06-20T18:58:08.250Z,81.75
2019-06-20T19:02:10.198Z,82.90
2019-06-20T19:06:12.194Z,83.94
2019-06-20T19:10:17.399Z,84.40
2019-06-20T19:14:19.350Z,84.09
2019-06-20T19:18:23.135Z,84.42
2019-06-20T19:22:24.898Z,85.25
2019-06-20T19:26:26.798Z,85.40
2019-06-20T19:30:45.096Z,86.40
2019-06-20T19:35:01.039Z,86.45
2019-06-20T19:38:51.558Z,86.42
2019-06-20T19:42:53.535Z,86.49
2019-06-20T19:46:55.439Z,86.23
2019-06-20T19:50:57.340Z,86.35
2019-06-20T19:54:59.340Z,86.46
2019-06-20T19:59:01.479Z,86.50
2019-06-20T20:03:03.863Z,85.98
2019-06-20T20:07:05.956Z,85.72
2019-06-20T20:11:07.883Z,85.31
2019-06-20T20:15:10.147Z,85.38
2019-06-20T20:19:12.174Z,85.51
2019-06-20T20:23:14.072Z,85.75
2019-06-20T20:27:16.013Z,86.34
2019-06-20T20:31:18.090Z,86.78
2019-06-20T20:35:34.582Z,85.88
2019-06-20T20:39:23.670Z,85.61
2019-06-20T20:43:25.573Z,86.17
2019-06-20T20:47:28.462Z,86.86
2019-06-20T20:51:30.566Z,87.21
2019-06-20T20:55:32.460Z,87.16
2019-06-20T20:59:34.431Z,87.29
2019-06-20T21:03:36.800Z,87.02
2019-06-20T21:07:39.313Z,87.77
2019-06-20T21:11:41.458Z,87.95
2019-06-20T21:15:43.358Z,87.87
2019-06-20T21:19:45.274Z,87.76
2019-06-20T21:23:47.175Z,88.43
2019-06-20T21:27:49.090Z,88.21
2019-06-20T21:31:51.001Z,88.29
2019-06-20T21:36:07.263Z,89.20
2019-06-20T21:39:56.576Z,89.07
2019-06-20T21:43:58.470Z,88.50
2019-06-20T21:48:00.376Z,88.61
2019-06-20T21:52:02.281Z,88.96
2019-06-20T21:56:04.462Z,88.47
2019-06-20T22:00:32.364Z,87.92
2019-06-20T22:04:35.871Z,88.59
2019-06-20T22:08:37.762Z,88.85
2019-06-20T22:12:39.689Z,89.08
2019-06-20T22:16:41.596Z,89.28
2019-06-20T22:20:43.498Z,89.85
2019-06-20T22:24:45.418Z,90.29
2019-06-20T22:28:47.306Z,90.28
2019-06-20T22:32:49.205Z,90.21
2019-06-20T22:36:51.123Z,89.06
2019-06-20T22:40:53.024Z,89.46
2019-06-20T22:44:54.922Z,89.51
2019-06-20T22:48:57.852Z,90.10
2019-06-20T22:52:59.778Z,90.44
2019-06-20T22:57:01.723Z,90.80
2019-06-20T23:01:03.716Z,91.19
2019-06-20T23:05:07.743Z,90.74
2019-06-20T23:09:09.707Z,90.40
2019-06-20T23:13:11.661Z,90.27
2019-06-20T23:17:13.556Z,90.55
2019-06-20T23:21:15.453Z,90.80
2019-06-20T23:25:18.464Z,90.40
2019-06-20T23:29:23.202Z,90.60
2019-06-20T23:33:25.094Z,89.37
2019-06-20T23:37:27.001Z,89.29
2019-06-20T23:41:28.906Z,90.10
2019-06-20T23:45:30.800Z,90.39
2019-06-20T23:49:32.884Z,90.41
2019-06-20T23:53:35.834Z,90.27
2019-06-20T23:57:37.739Z,90.32
